sensor_id;sensor_type;location;lat;lon;timestamp;temperature;humidity
70076;DHT22;63241;51.056;3.698;2023-03-01T06:18:08;0.10;99.90
70076;DHT22;63241;51.056;3.698;2023-03-01T06:20:36;0.10;99.90
70076;DHT22;63241;51.056;3.698;2023-03-01T06:23:03;0.20;99.90
70076;DHT22;63241;51.056;3.698;2023-03-01T06:25:31;0.20;99.90
70076;DHT22;63241;51.056;3.698;2023-03-01T06:27:59;0.20;99.90
70076;DHT22;63241;51.056;3.698;2023-03-01T06:34:31;0.30;99.90
70076;DHT22;63241;51.056;3.698;2023-03-01T06:36:59;0.30;99.90
70076;DHT22;63241;51.056;3.698;2023-03-01T06:39:28;0.30;99.90
70076;DHT22;63241;51.056;3.698;2023-03-01T06:41:56;0.30;99.90
70076;DHT22;63241;51.056;3.698;2023-03-01T06:48:32;0.30;99.90
70076;DHT22;63241;51.056;3.698;2023-03-01T06:51:01;0.40;99.90
70076;DHT22;63241;51.056;3.698;2023-03-01T06:53:29;0.50;99.90
70076;DHT22;63241;51.056;3.698;2023-03-01T06:55:58;0.50;99.90
70076;DHT22;63241;51.056;3.698;2023-03-01T07:07:46;0.60;99.90
70076;DHT22;63241;51.056;3.698;2023-03-01T07:10:14;0.70;99.90
70076;DHT22;63241;51.056;3.698;2023-03-01T07:12:42;0.80;99.90
70076;DHT22;63241;51.056;3.698;2023-03-01T07:15:10;0.80;99.90
70076;DHT22;63241;51.056;3.698;2023-03-01T07:17:38;0.90;99.90
70076;DHT22;63241;51.056;3.698;2023-03-01T07:20:06;0.90;99.90
70076;DHT22;63241;51.056;3.698;2023-03-01T07:22:34;1.00;99.90
70076;DHT22;63241;51.056;3.698;2023-03-01T07:25:02;1.10;99.90
70076;DHT22;63241;51.056;3.698;2023-03-01T07:27:29;1.10;99.90
70076;DHT22;63241;51.056;3.698;2023-03-01T07:29:57;1.20;99.90
70076;DHT22;63241;51.056;3.698;2023-03-01T07:32:25;1.30;99.90
70076;DHT22;63241;51.056;3.698;2023-03-01T07:34:52;1.30;99.90
70076;DHT22;63241;51.056;3.698;2023-03-01T07:37:20;1.40;99.90
70076;DHT22;63241;51.056;3.698;2023-03-01T07:39:48;1.40;99.90
70076;DHT22;63241;51.056;3.698;2023-03-01T07:42:15;1.40;99.90
70076;DHT22;63241;51.056;3.698;2023-03-01T07:44:43;1.50;99.90
70076;DHT22;63241;51.056;3.698;2023-03-01T07:47:11;1.60;99.90
70076;DHT22;63241;51.056;3.698;2023-03-01T07:49:39;1.70;99.90
70076;DHT22;63241;51.056;3.698;2023-03-01T07:52:09;1.70;99.90
70076;DHT22;63241;51.056;3.698;2023-03-01T07:54:36;1.80;99.90
70076;DHT22;63241;51.056;3.698;2023-03-01T07:57:04;1.90;99.90
70076;DHT22;63241;51.056;3.698;2023-03-01T07:59:32;1.90;99.90
70076;DHT22;63241;51.056;3.698;2023-03-01T08:02:00;2.00;99.90
70076;DHT22;63241;51.056;3.698;2023-03-01T08:04:27;2.00;99.90
70076;DHT22;63241;51.056;3.698;2023-03-01T08:06:55;2.20;99.90
70076;DHT22;63241;51.056;3.698;2023-03-01T08:09:23;3.80;99.90
70076;DHT22;63241;51.056;3.698;2023-03-01T08:11:51;6.40;98.20
70076;DHT22;63241;51.056;3.698;2023-03-01T08:14:19;9.10;82.10
70076;DHT22;63241;51.056;3.698;2023-03-01T08:16:49;10.50;58.40
70076;DHT22;63241;51.056;3.698;2023-03-01T08:19:16;12.50;55.60
70076;DHT22;63241;51.056;3.698;2023-03-01T08:21:44;14.40;52.30
70076;DHT22;63241;51.056;3.698;2023-03-01T08:24:12;15.00;45.30
70076;DHT22;63241;51.056;3.698;2023-03-01T08:26:40;15.50;42.60
70076;DHT22;63241;51.056;3.698;2023-03-01T08:29:08;16.40;40.90
70076;DHT22;63241;51.056;3.698;2023-03-01T08:31:37;17.40;36.80
70076;DHT22;63241;51.056;3.698;2023-03-01T08:34:09;18.40;35.60
70076;DHT22;63241;51.056;3.698;2023-03-01T08:36:38;19.10;33.70
70076;DHT22;63241;51.056;3.698;2023-03-01T08:39:07;18.50;30.00
70076;DHT22;63241;51.056;3.698;2023-03-01T08:41:36;18.40;32.20
70076;DHT22;63241;51.056;3.698;2023-03-01T08:44:04;18.30;31.70
70076;DHT22;63241;51.056;3.698;2023-03-01T08:46:34;18.00;30.00
70076;DHT22;63241;51.056;3.698;2023-03-01T08:49:07;17.10;30.40
70076;DHT22;63241;51.056;3.698;2023-03-01T08:51:35;17.80;32.10
70076;DHT22;63241;51.056;3.698;2023-03-01T08:54:14;18.60;30.70
70076;DHT22;63241;51.056;3.698;2023-03-01T08:56:42;17.90;29.60
70076;DHT22;63241;51.056;3.698;2023-03-01T08:59:12;18.60;30.10
70076;DHT22;63241;51.056;3.698;2023-03-01T09:01:40;19.30;29.30
70076;DHT22;63241;51.056;3.698;2023-03-01T09:04:10;20.30;28.90
70076;DHT22;63241;51.056;3.698;2023-03-01T09:06:39;20.70;27.40
70076;DHT22;63241;51.056;3.698;2023-03-01T09:09:10;19.50;27.00
70076;DHT22;63241;51.056;3.698;2023-03-01T09:11:36;19.60;28.00
70076;DHT22;63241;51.056;3.698;2023-03-01T09:14:06;20.10;27.50
70076;DHT22;63241;51.056;3.698;2023-03-01T09:16:33;20.40;27.00
70076;DHT22;63241;51.056;3.698;2023-03-01T09:19:03;20.60;26.30
70076;DHT22;63241;51.056;3.698;2023-03-01T09:21:31;20.20;27.00
70076;DHT22;63241;51.056;3.698;2023-03-01T09:23:59;20.90;26.40
70076;DHT22;63241;51.056;3.698;2023-03-01T09:26:27;20.80;25.80
70076;DHT22;63241;51.056;3.698;2023-03-01T09:28:55;20.90;26.50
70076;DHT22;63241;51.056;3.698;2023-03-01T09:31:24;21.30;25.70
70076;DHT22;63241;51.056;3.698;2023-03-01T09:33:53;21.60;25.60
70076;DHT22;63241;51.056;3.698;2023-03-01T09:36:23;21.80;25.40
70076;DHT22;63241;51.056;3.698;2023-03-01T09:38:53;22.00;25.20
70076;DHT22;63241;51.056;3.698;2023-03-01T09:46:58;22.60;23.30
70076;DHT22;63241;51.056;3.698;2023-03-01T09:49:29;22.10;23.40
70076;DHT22;63241;51.056;3.698;2023-03-01T09:54:49;22.30;24.10
70076;DHT22;63241;51.056;3.698;2023-03-01T09:57:20;21.80;24.10
70076;DHT22;63241;51.056;3.698;2023-03-01T10:02:56;22.80;24.20
70076;DHT22;63241;51.056;3.698;2023-03-01T10:08:26;22.90;22.90
70076;DHT22;63241;51.056;3.698;2023-03-01T10:10:56;23.30;22.90
70076;DHT22;63241;51.056;3.698;2023-03-01T10:13:54;22.70;22.50
70076;DHT22;63241;51.056;3.698;2023-03-01T10:16:19;23.50;22.90
70076;DHT22;63241;51.056;3.698;2023-03-01T10:18:47;23.00;22.90
70076;DHT22;63241;51.056;3.698;2023-03-01T10:21:17;22.70;22.90
70076;DHT22;63241;51.056;3.698;2023-03-01T10:23:46;23.20;23.40
70076;DHT22;63241;51.056;3.698;2023-03-01T10:26:23;23.90;22.30
70076;DHT22;63241;51.056;3.698;2023-03-01T10:29:10;23.40;22.10
70076;DHT22;63241;51.056;3.698;2023-03-01T10:31:49;22.80;22.40
70076;DHT22;63241;51.056;3.698;2023-03-01T10:34:20;22.70;22.60
70076;DHT22;63241;51.056;3.698;2023-03-01T10:36:56;22.40;22.90
70076;DHT22;63241;51.056;3.698;2023-03-01T10:39:25;23.10;22.00
70076;DHT22;63241;51.056;3.698;2023-03-01T10:42:02;22.10;22.10
70076;DHT22;63241;51.056;3.698;2023-03-01T10:44:47;22.00;22.80
70076;DHT22;63241;51.056;3.698;2023-03-01T10:47:25;21.60;23.10
70076;DHT22;63241;51.056;3.698;2023-03-01T10:49:58;21.10;23.40
70076;DHT22;63241;51.056;3.698;2023-03-01T10:52:29;20.50;23.20
70076;DHT22;63241;51.056;3.698;2023-03-01T10:55:04;20.60;24.10
70076;DHT22;63241;51.056;3.698;2023-03-01T10:57:37;21.20;23.80
70076;DHT22;63241;51.056;3.698;2023-03-01T11:03:01;20.60;23.70
70076;DHT22;63241;51.056;3.698;2023-03-01T11:05:21;20.50;24.20
70076;DHT22;63241;51.056;3.698;2023-03-01T11:07:57;20.30;24.50
70076;DHT22;63241;51.056;3.698;2023-03-01T11:10:24;20.40;24.20
70076;DHT22;63241;51.056;3.698;2023-03-01T11:12:53;20.10;24.40
70076;DHT22;63241;51.056;3.698;2023-03-01T11:15:27;19.60;25.10
70076;DHT22;63241;51.056;3.698;2023-03-01T11:17:56;19.30;25.20
70076;DHT22;63241;51.056;3.698;2023-03-01T11:22:58;19.00;25.90
70076;DHT22;63241;51.056;3.698;2023-03-01T11:25:29;19.20;26.00
70076;DHT22;63241;51.056;3.698;2023-03-01T11:27:56;18.90;25.70
70076;DHT22;63241;51.056;3.698;2023-03-01T11:36:07;19.20;25.90
70076;DHT22;63241;51.056;3.698;2023-03-01T11:38:35;18.50;26.10
70076;DHT22;63241;51.056;3.698;2023-03-01T11:41:12;18.50;25.90
70076;DHT22;63241;51.056;3.698;2023-03-01T11:43:59;19.10;25.90
70076;DHT22;63241;51.056;3.698;2023-03-01T11:49:45;18.90;26.30
70076;DHT22;63241;51.056;3.698;2023-03-01T11:55:16;18.80;26.30
70076;DHT22;63241;51.056;3.698;2023-03-01T12:00:34;19.20;25.90
70076;DHT22;63241;51.056;3.698;2023-03-01T12:08:28;18.80;26.00
70076;DHT22;63241;51.056;3.698;2023-03-01T12:11:13;18.90;26.40
70076;DHT22;63241;51.056;3.698;2023-03-01T12:22:10;19.70;26.40
70076;DHT22;63241;51.056;3.698;2023-03-01T12:54:38;17.90;26.90
70076;DHT22;63241;51.056;3.698;2023-03-01T13:17:32;18.20;26.80
70076;DHT22;63241;51.056;3.698;2023-03-01T13:20:00;17.70;28.70
70076;DHT22;63241;51.056;3.698;2023-03-01T13:22:32;18.30;27.50
70076;DHT22;63241;51.056;3.698;2023-03-01T13:30:43;17.50;27.90
70076;DHT22;63241;51.056;3.698;2023-03-01T13:36:03;17.00;29.50
70076;DHT22;63241;51.056;3.698;2023-03-01T13:42:44;17.60;29.60
70076;DHT22;63241;51.056;3.698;2023-03-01T14:44:38;15.70;31.80
70076;DHT22;63241;51.056;3.698;2023-03-01T14:50:59;14.30;34.90
70076;DHT22;63241;51.056;3.698;2023-03-01T14:53:29;13.90;35.40
70076;DHT22;63241;51.056;3.698;2023-03-01T14:56:01;13.50;36.10
70076;DHT22;63241;51.056;3.698;2023-03-01T14:58:31;13.20;36.90
70076;DHT22;63241;51.056;3.698;2023-03-01T15:04:36;12.90;36.90
70076;DHT22;63241;51.056;3.698;2023-03-01T15:07:04;12.70;37.60
70076;DHT22;63241;51.056;3.698;2023-03-01T15:09:34;12.50;38.20
70076;DHT22;63241;51.056;3.698;2023-03-01T15:18:33;11.80;38.90
70076;DHT22;63241;51.056;3.698;2023-03-01T15:23:49;11.10;41.40
70076;DHT22;63241;51.056;3.698;2023-03-01T15:26:27;11.00;42.10
70076;DHT22;63241;51.056;3.698;2023-03-01T15:29:21;10.80;42.10
70076;DHT22;63241;51.056;3.698;2023-03-01T15:35:41;10.30;42.90
70076;DHT22;63241;51.056;3.698;2023-03-01T15:38:29;10.10;43.30
70076;DHT22;63241;51.056;3.698;2023-03-01T15:41:00;9.90;43.80
70076;DHT22;63241;51.056;3.698;2023-03-01T15:43:54;9.80;44.40
70076;DHT22;63241;51.056;3.698;2023-03-01T15:46:34;9.70;44.30
70076;DHT22;63241;51.056;3.698;2023-03-01T15:49:19;9.50;44.60
70076;DHT22;63241;51.056;3.698;2023-03-01T15:51:36;9.30;45.10
70076;DHT22;63241;51.056;3.698;2023-03-01T15:54:15;9.20;45.60
70076;DHT22;63241;51.056;3.698;2023-03-01T16:00:26;8.90;46.10
70076;DHT22;63241;51.056;3.698;2023-03-01T16:02:55;8.90;46.60
70076;DHT22;63241;51.056;3.698;2023-03-01T16:05:26;8.80;47.00
70076;DHT22;63241;51.056;3.698;2023-03-01T16:07:54;8.70;47.30
70076;DHT22;63241;51.056;3.698;2023-03-01T16:13:42;8.70;47.50
70076;DHT22;63241;51.056;3.698;2023-03-01T16:16:11;8.70;47.50
70076;DHT22;63241;51.056;3.698;2023-03-01T16:18:44;8.70;47.40
70076;DHT22;63241;51.056;3.698;2023-03-01T16:21:21;8.60;47.80
70076;DHT22;63241;51.056;3.698;2023-03-01T16:30:25;8.20;48.50
70076;DHT22;63241;51.056;3.698;2023-03-01T16:32:53;8.20;48.90
70076;DHT22;63241;51.056;3.698;2023-03-01T16:35:21;8.10;49.00
70076;DHT22;63241;51.056;3.698;2023-03-01T16:41:51;8.00;49.40
70076;DHT22;63241;51.056;3.698;2023-03-01T16:44:19;7.90;49.90
70076;DHT22;63241;51.056;3.698;2023-03-01T16:46:47;7.80;50.20
70076;DHT22;63241;51.056;3.698;2023-03-01T16:49:14;7.70;50.20
70076;DHT22;63241;51.056;3.698;2023-03-01T16:55:36;7.60;50.50
70076;DHT22;63241;51.056;3.698;2023-03-01T16:58:04;7.50;50.40
70076;DHT22;63241;51.056;3.698;2023-03-01T17:00:32;7.50;50.60
70076;DHT22;63241;51.056;3.698;2023-03-01T17:03:00;7.40;50.80
70076;DHT22;63241;51.056;3.698;2023-03-01T17:05:48;7.30;50.90
70076;DHT22;63241;51.056;3.698;2023-03-01T17:08:58;7.30;51.10
70076;DHT22;63241;51.056;3.698;2023-03-01T17:11:27;7.10;51.40
70076;DHT22;63241;51.056;3.698;2023-03-01T17:13:55;7.00;51.60
70076;DHT22;63241;51.056;3.698;2023-03-01T17:16:23;7.00;51.50
70076;DHT22;63241;51.056;3.698;2023-03-01T17:19:04;6.90;51.30
70076;DHT22;63241;51.056;3.698;2023-03-01T17:22:05;6.90;51.60
70076;DHT22;63241;51.056;3.698;2023-03-01T17:24:34;6.80;51.70
70076;DHT22;63241;51.056;3.698;2023-03-01T17:27:03;6.70;51.70
70076;DHT22;63241;51.056;3.698;2023-03-01T17:29:31;6.70;51.90
70076;DHT22;63241;51.056;3.698;2023-03-01T17:32:05;6.70;51.90
70076;DHT22;63241;51.056;3.698;2023-03-01T17:34:45;6.50;52.20
70076;DHT22;63241;51.056;3.698;2023-03-01T17:37:18;6.40;52.60
70076;DHT22;63241;51.056;3.698;2023-03-01T17:39:46;6.30;52.80
70076;DHT22;63241;51.056;3.698;2023-03-01T17:42:14;6.20;53.10
